Time;durP1;ratioP1;P1;durP2;ratioP2;P2;SDS_P1;SDS_P2;PMS_P1;PMS_P2;Temp;Humidity;BMP_temperature;BMP_pressure;BME280_temperature;BME280_humidity;BME280_pressure;Samples;Min_cycle;Max_cycle;Signal;HPM_P1;HPM_P2
2021/06/17 00:01:38;;;;;;;17.93;10.13;;;17.40;99.90;;;;;;4405235;28;657825;-72
2021/06/17 00:04:26;;;;;;;17.87;10.50;;;17.40;99.90;;;;;;4444390;28;658174;-72
2021/06/17 00:07:13;;;;;;;19.07;11.27;;;17.30;99.90;;;;;;4421465;28;658011;-72
2021/06/17 00:10:01;;;;;;;22.97;11.33;;;17.30;99.90;;;;;;4442616;28;657768;-71
2021/06/17 00:12:50;;;;;;;20.07;11.80;;;17.30;99.90;;;;;;4419297;28;657565;-72
2021/06/17 00:15:38;;;;;;;22.60;11.13;;;17.30;99.90;;;;;;4428072;28;657708;-72
2021/06/17 00:18:26;;;;;;;18.57;11.40;;;17.30;99.90;;;;;;4437805;28;658707;-72
2021/06/17 00:21:13;;;;;;;17.73;11.33;;;17.20;99.90;;;;;;4421874;28;658165;-72
2021/06/17 00:24:01;;;;;;;21.60;12.38;;;17.30;99.90;;;;;;4417655;28;658601;-72
2021/06/17 00:26:50;;;;;;;18.67;11.10;;;17.20;99.90;;;;;;4413311;28;657732;-72
2021/06/17 00:29:40;;;;;;;20.50;11.30;;;17.20;99.90;;;;;;4412152;28;657280;-72
2021/06/17 00:32:28;;;;;;;23.13;12.43;;;17.20;99.90;;;;;;4423394;28;657772;-71
2021/06/17 00:35:16;;;;;;;23.67;11.87;;;17.20;99.90;;;;;;4421351;28;658541;-72
2021/06/17 00:38:04;;;;;;;19.23;12.07;;;17.20;99.90;;;;;;4398430;28;657783;-72
2021/06/17 00:40:53;;;;;;;19.70;12.13;;;17.20;99.90;;;;;;4423193;28;658027;-72
2021/06/17 00:43:41;;;;;;;23.77;12.87;;;17.10;99.90;;;;;;4403252;28;658275;-72
2021/06/17 00:46:30;;;;;;;19.43;12.20;;;17.10;99.90;;;;;;4410842;28;657427;-72
2021/06/17 00:49:18;;;;;;;23.63;12.50;;;17.10;99.90;;;;;;4414201;28;657656;-72
2021/06/17 00:52:07;;;;;;;22.40;13.27;;;17.10;99.90;;;;;;4434138;28;657677;-72
2021/06/17 00:54:57;;;;;;;23.27;13.37;;;17.10;99.90;;;;;;4401482;28;658058;-72
2021/06/17 00:57:45;;;;;;;26.13;13.93;;;17.10;99.90;;;;;;4398267;28;658623;-72
2021/06/17 01:00:33;;;;;;;25.70;13.48;;;17.10;99.90;;;;;;4409968;28;657906;-72
2021/06/17 01:03:22;;;;;;;25.33;12.97;;;17.00;99.90;;;;;;4421026;28;658261;-72
2021/06/17 01:06:10;;;;;;;24.47;14.13;;;17.00;99.90;;;;;;4406635;28;658708;-72
2021/06/17 01:09:02;;;;;;;24.07;13.80;;;17.00;99.90;;;;;;4425102;28;658131;-72
2021/06/17 01:11:52;;;;;;;22.20;13.50;;;17.00;99.90;;;;;;4409040;28;657416;-72
2021/06/17 01:14:42;;;;;;;26.83;13.57;;;17.00;99.90;;;;;;4410591;28;658099;-72
2021/06/17 01:17:30;;;;;;;26.43;12.83;;;17.00;99.90;;;;;;4405976;28;658385;-72
2021/06/17 01:20:26;;;;;;;23.33;12.93;;;16.90;99.90;;;;;;4403328;28;657514;-72
2021/06/17 01:23:53;;;;;;;18.57;11.60;;;16.90;99.90;;;;;;4399420;28;658563;-72
2021/06/17 01:26:55;;;;;;;20.23;12.70;;;16.80;99.90;;;;;;4349299;28;657495;-72
2021/06/17 01:29:45;;;;;;;25.70;13.17;;;16.70;99.90;;;;;;4321777;28;657690;-72
2021/06/17 01:32:33;;;;;;;21.17;12.85;;;16.70;99.90;;;;;;4335927;28;658495;-72
2021/06/17 01:35:21;;;;;;;21.37;13.10;;;16.60;99.90;;;;;;4355845;28;658726;-72
2021/06/17 01:38:09;;;;;;;20.30;13.27;;;16.60;99.90;;;;;;4347024;28;657921;-72
2021/06/17 01:40:56;;;;;;;19.93;12.63;;;16.50;99.90;;;;;;4377418;28;657914;-72
2021/06/17 01:43:44;;;;;;;21.23;12.37;;;16.50;99.90;;;;;;4340326;28;658330;-72
2021/06/17 01:46:34;;;;;;;16.43;11.43;;;16.40;99.90;;;;;;4355207;28;657434;-72
2021/06/17 01:49:22;;;;;;;18.43;11.67;;;16.30;99.90;;;;;;4344120;28;658021;-71
2021/06/17 01:52:09;;;;;;;20.30;12.37;;;16.20;99.90;;;;;;4336206;28;658256;-72
2021/06/17 01:54:57;;;;;;;21.17;12.97;;;16.10;99.90;;;;;;4374569;28;657916;-71
2021/06/17 01:57:45;;;;;;;22.13;12.30;;;16.10;99.90;;;;;;4347260;28;658778;-72
2021/06/17 02:00:33;;;;;;;23.07;12.13;;;16.00;99.90;;;;;;4353317;28;657466;-72
2021/06/17 02:03:23;;;;;;;19.50;12.27;;;15.90;99.90;;;;;;4369283;28;658560;-71
2021/06/17 02:06:11;;;;;;;20.67;12.97;;;15.90;99.90;;;;;;4423805;28;658129;-72
2021/06/17 02:08:59;;;;;;;28.07;13.50;;;15.90;99.90;;;;;;4416857;28;657378;-71
2021/06/17 02:11:47;;;;;;;20.97;11.87;;;15.90;99.90;;;;;;4448166;28;656939;-71
2021/06/17 02:14:34;;;;;;;24.17;12.87;;;15.90;99.90;;;;;;4423041;28;659234;-71
2021/06/17 02:17:25;;;;;;;21.50;13.30;;;15.80;99.90;;;;;;4442452;28;657344;-71
2021/06/17 02:20:17;;;;;;;20.13;11.83;;;15.80;99.90;;;;;;4410272;28;657653;-71
2021/06/17 02:23:11;;;;;;;17.87;11.97;;;15.70;99.90;;;;;;4416749;28;658590;-71
2021/06/17 02:25:59;;;;;;;22.53;12.83;;;15.70;99.90;;;;;;4414842;28;657229;-70
2021/06/17 02:28:48;;;;;;;20.70;12.70;;;15.60;99.90;;;;;;4449202;28;657245;-71
2021/06/17 02:31:36;;;;;;;21.57;12.77;;;15.60;99.90;;;;;;4417207;28;658526;-71
2021/06/17 02:34:24;;;;;;;22.43;12.43;;;15.50;99.90;;;;;;4430437;28;658036;-71
2021/06/17 02:37:14;;;;;;;22.97;11.97;;;15.50;99.90;;;;;;4440729;28;657458;-71
2021/06/17 02:40:01;;;;;;;18.63;11.87;;;15.50;99.90;;;;;;4408082;28;658207;-71
2021/06/17 02:42:49;;;;;;;24.33;11.93;;;15.50;99.90;;;;;;4411533;28;657601;-71
2021/06/17 02:45:37;;;;;;;26.80;13.00;;;15.40;99.90;;;;;;4443069;28;657628;-71
2021/06/17 02:48:24;;;;;;;20.07;12.37;;;15.40;99.90;;;;;;4413991;28;658085;-71
2021/06/17 02:51:12;;;;;;;21.27;12.33;;;15.40;99.90;;;;;;4432839;28;658184;-70
2021/06/17 02:54:01;;;;;;;22.17;11.87;;;15.40;99.90;;;;;;4410783;28;658721;-71
2021/06/17 02:56:57;;;;;;;17.47;12.17;;;15.40;99.90;;;;;;4414350;28;657483;-71
2021/06/17 02:59:51;;;;;;;21.37;12.83;;;15.40;99.90;;;;;;4413913;28;657766;-71
2021/06/17 03:02:59;;;;;;;24.07;12.53;;;15.40;99.90;;;;;;4386612;28;658108;-71
2021/06/17 03:06:03;;;;;;;17.87;12.40;;;15.40;99.90;;;;;;4414715;28;657796;-71
2021/06/17 03:08:52;;;;;;;20.23;11.70;;;15.50;99.90;;;;;;4417238;28;657562;-71
2021/06/17 03:11:42;;;;;;;18.23;11.10;;;15.60;99.90;;;;;;4417508;28;658732;-71
2021/06/17 03:14:33;;;;;;;18.97;11.60;;;15.60;99.90;;;;;;4425393;28;657988;-71
2021/06/17 03:17:21;;;;;;;21.57;12.23;;;15.70;99.90;;;;;;4416166;28;658194;-71
2021/06/17 03:20:09;;;;;;;22.60;11.13;;;15.70;99.90;;;;;;4418402;28;658059;-71
2021/06/17 03:22:56;;;;;;;19.87;11.60;;;15.80;99.90;;;;;;4446830;28;658934;-71
2021/06/17 03:25:46;;;;;;;25.30;11.40;;;15.90;99.90;;;;;;4420976;28;657904;-71
2021/06/17 03:28:35;;;;;;;17.73;11.00;;;16.00;99.90;;;;;;4419627;28;657545;-71
2021/06/17 03:31:23;;;;;;;18.47;9.73;;;16.00;99.90;;;;;;4431872;28;658238;-71
2021/06/17 03:34:11;;;;;;;16.50;11.10;;;16.10;99.90;;;;;;4436510;28;657215;-71
2021/06/17 03:36:59;;;;;;;15.60;10.77;;;16.10;99.90;;;;;;4420604;28;657325;-71
2021/06/17 03:39:46;;;;;;;14.73;10.33;;;16.10;99.90;;;;;;4438333;28;657919;-71
2021/06/17 03:42:34;;;;;;;17.77;10.73;;;16.20;99.90;;;;;;4428989;28;657456;-71
2021/06/17 03:45:23;;;;;;;52.00;10.80;;;16.20;99.90;;;;;;4447176;28;657728;-71
2021/06/17 03:48:12;;;;;;;21.63;10.03;;;16.30;99.90;;;;;;4418200;28;658799;-71
2021/06/17 03:51:02;;;;;;;18.03;10.03;;;16.30;99.90;;;;;;4404145;28;657611;-71
2021/06/17 03:53:50;;;;;;;16.67;10.27;;;16.30;99.90;;;;;;4413916;28;658635;-71
2021/06/17 03:56:38;;;;;;;16.50;10.10;;;16.40;99.90;;;;;;4415179;28;658198;-71
2021/06/17 03:59:27;;;;;;;17.13;9.80;;;16.50;99.90;;;;;;4450300;28;658350;-71
2021/06/17 04:02:16;;;;;;;15.27;9.57;;;16.60;99.90;;;;;;4429595;28;658025;-71
2021/06/17 04:05:04;;;;;;;18.23;9.87;;;16.70;99.90;;;;;;4433781;28;657053;-71
2021/06/17 04:07:52;;;;;;;17.13;9.67;;;16.80;99.90;;;;;;4439088;28;657169;-71
2021/06/17 04:10:41;;;;;;;14.30;9.25;;;16.90;99.90;;;;;;4417690;28;657349;-71
2021/06/17 04:13:31;;;;;;;16.60;9.90;;;17.10;99.90;;;;;;4417358;28;657277;-71
2021/06/17 04:16:22;;;;;;;17.77;9.67;;;17.10;99.90;;;;;;4417258;28;656569;-71
2021/06/17 04:19:11;;;;;;;21.70;9.93;;;17.30;99.90;;;;;;4417938;28;657807;-71
2021/06/17 04:22:01;;;;;;;16.87;9.67;;;17.30;99.90;;;;;;4424486;28;657142;-71
2021/06/17 04:24:51;;;;;;;13.73;9.23;;;17.50;99.90;;;;;;4415241;28;657094;-71
2021/06/17 04:27:40;;;;;;;15.13;9.13;;;17.60;99.90;;;;;;4421937;28;656905;-71
2021/06/17 04:30:28;;;;;;;17.67;8.90;;;17.70;99.90;;;;;;4420387;28;657214;-71
2021/06/17 04:33:20;;;;;;;14.60;9.50;;;17.80;99.90;;;;;;4448517;28;657944;-71
2021/06/17 04:36:09;;;;;;;15.67;8.97;;;17.90;99.90;;;;;;4415427;28;656967;-71
2021/06/17 04:38:57;;;;;;;12.50;8.13;;;18.00;99.90;;;;;;4429709;28;656639;-71
2021/06/17 04:41:44;;;;;;;13.17;8.70;;;18.10;99.90;;;;;;4422443;28;656794;-71
2021/06/17 04:44:32;;;;;;;19.03;9.23;;;18.20;99.90;;;;;;4435332;28;657502;-70
2021/06/17 04:47:20;;;;;;;13.80;8.73;;;18.40;99.90;;;;;;4412855;28;657784;-71
2021/06/17 04:50:09;;;;;;;17.10;9.27;;;18.50;99.90;;;;;;4437305;28;657019;-71
2021/06/17 04:53:11;;;;;;;17.17;8.80;;;18.70;99.90;;;;;;4433034;28;656326;-71
2021/06/17 04:56:02;;;;;;;13.00;8.13;;;18.80;99.90;;;;;;4395295;28;657393;-71
2021/06/17 04:58:50;;;;;;;13.83;8.07;;;19.00;99.90;;;;;;4426918;28;658133;-71
2021/06/17 05:01:40;;;;;;;12.23;8.10;;;19.10;99.90;;;;;;4421679;28;656770;-71
2021/06/17 05:04:28;;;;;;;12.67;8.10;;;19.20;99.90;;;;;;4424415;28;656349;-71
2021/06/17 05:13:33;;;;;;;9.57;6.90;;;19.70;99.90;;;;;;4370572;28;656410;-71
2021/06/17 05:16:21;;;;;;;12.10;8.27;;;19.80;99.90;;;;;;4397128;28;656343;-71
2021/06/17 05:19:08;;;;;;;11.00;7.90;;;20.00;99.90;;;;;;4374232;28;656509;-71
2021/06/17 05:21:56;;;;;;;12.57;7.87;;;20.10;99.90;;;;;;4396763;28;657030;-71
2021/06/17 05:24:44;;;;;;;10.87;7.03;;;20.20;99.90;;;;;;4370812;28;656800;-71
2021/06/17 05:27:33;;;;;;;10.53;7.33;;;20.40;99.90;;;;;;4388300;28;656671;-71
2021/06/17 05:30:21;;;;;;;10.33;7.23;;;20.50;99.90;;;;;;4364412;28;657261;-71
2021/06/17 05:33:09;;;;;;;14.40;7.60;;;20.60;99.90;;;;;;4349560;28;656621;-71
2021/06/17 05:35:56;;;;;;;11.53;7.40;;;20.80;99.90;;;;;;4381019;28;656342;-70
2021/06/17 05:38:44;;;;;;;14.15;8.57;;;21.00;99.90;;;;;;4367388;28;656478;-71
2021/06/17 05:41:31;;;;;;;15.30;8.90;;;21.10;99.90;;;;;;4386669;28;656788;-71
2021/06/17 05:44:20;;;;;;;16.83;8.60;;;21.20;99.90;;;;;;4362498;28;656466;-71
2021/06/17 05:47:08;;;;;;;13.37;7.83;;;21.20;99.90;;;;;;4378140;28;656542;-71
2021/06/17 05:49:55;;;;;;;13.63;8.17;;;21.30;99.90;;;;;;4399482;28;656953;-71
2021/06/17 05:52:43;;;;;;;14.27;8.40;;;21.50;99.90;;;;;;4432035;28;656521;-71
2021/06/17 05:55:30;;;;;;;15.40;9.10;;;21.50;99.90;;;;;;4446667;28;657506;-71
2021/06/17 05:58:18;;;;;;;12.07;8.33;;;21.60;99.90;;;;;;4411033;28;657143;-71
2021/06/17 06:01:07;;;;;;;15.17;8.90;;;21.70;99.90;;;;;;4440786;28;657490;-70
2021/06/17 06:03:54;;;;;;;15.97;8.70;;;21.90;99.90;;;;;;4426376;28;657471;-70
2021/06/17 06:06:42;;;;;;;15.00;8.17;;;21.90;99.90;;;;;;4439645;28;657233;-71
2021/06/17 06:09:29;;;;;;;11.70;7.67;;;22.00;99.90;;;;;;4417436;28;657463;-71
2021/06/17 06:12:17;;;;;;;10.13;7.00;;;22.10;99.90;;;;;;4450568;28;656497;-71
2021/06/17 06:25:53;;;;;;;17.50;8.23;;;22.40;99.90;;;;;;4391919;28;656760;-71
2021/06/17 06:28:40;;;;;;;16.77;7.53;;;22.60;99.90;;;;;;4393624;28;657861;-70
2021/06/17 06:31:28;;;;;;;14.23;7.10;;;22.50;99.90;;;;;;4398012;28;656595;-71
2021/06/17 06:34:15;;;;;;;10.33;7.20;;;22.60;99.90;;;;;;4417038;28;657426;-71
2021/06/17 06:37:03;;;;;;;9.20;6.68;;;22.70;99.90;;;;;;4406869;28;656350;-71
2021/06/17 06:39:51;;;;;;;11.13;7.23;;;22.90;99.90;;;;;;4436143;28;656667;-71
2021/06/17 06:42:40;;;;;;;9.97;7.10;;;22.90;99.90;;;;;;4397998;28;657600;-71
2021/06/17 06:45:27;;;;;;;13.93;7.30;;;22.90;99.90;;;;;;4426068;28;655717;-71
2021/06/17 06:48:16;;;;;;;10.33;6.93;;;22.90;99.90;;;;;;4397450;28;657297;-71
2021/06/17 06:51:04;;;;;;;12.03;7.20;;;22.90;99.90;;;;;;4396673;28;656412;-71
2021/06/17 06:53:51;;;;;;;10.00;7.00;;;23.10;99.90;;;;;;4413447;28;656757;-71
2021/06/17 06:56:39;;;;;;;12.10;7.40;;;23.30;99.90;;;;;;4409688;28;656728;-71
2021/06/17 06:59:28;;;;;;;21.00;7.17;;;23.40;99.90;;;;;;4429517;28;656334;-71
2021/06/17 07:02:15;;;;;;;12.77;6.60;;;23.60;99.90;;;;;;4400224;28;657063;-71
2021/06/17 07:05:03;;;;;;;12.23;7.10;;;23.80;99.90;;;;;;4394370;28;657154;-71
2021/06/17 07:07:51;;;;;;;12.20;7.07;;;24.00;99.90;;;;;;4417220;28;657922;-71
2021/06/17 07:10:40;;;;;;;10.43;6.50;;;24.00;99.90;;;;;;4395374;28;656859;-71
2021/06/17 07:13:29;;;;;;;16.73;6.73;;;24.00;99.90;;;;;;4397130;28;656699;-71
2021/06/17 07:16:17;;;;;;;10.60;6.23;;;24.10;99.90;;;;;;4427310;28;656556;-71
2021/06/17 07:19:07;;;;;;;11.97;7.20;;;24.20;99.90;;;;;;4395606;28;657968;-71
2021/06/17 07:21:54;;;;;;;12.33;6.60;;;24.30;99.90;;;;;;4407805;28;658026;-71
2021/06/17 07:24:42;;;;;;;15.57;6.77;;;24.50;99.90;;;;;;4422810;28;656351;-70
2021/06/17 07:27:29;;;;;;;10.47;6.90;;;24.60;99.90;;;;;;4413530;28;658302;-70
2021/06/17 07:30:18;;;;;;;15.47;6.97;;;24.70;99.90;;;;;;4427713;28;656382;-70
2021/06/17 07:33:07;;;;;;;13.77;7.03;;;24.80;99.90;;;;;;4416993;28;656865;-70
2021/06/17 07:35:55;;;;;;;13.10;7.03;;;25.00;99.90;;;;;;4417846;28;657581;-71
2021/06/17 07:38:43;;;;;;;12.35;7.10;;;25.10;99.90;;;;;;4420198;28;656683;-70
2021/06/17 07:41:31;;;;;;;12.90;6.80;;;25.20;99.90;;;;;;4434862;28;657713;-71
2021/06/17 07:44:19;;;;;;;16.67;6.90;;;25.30;99.90;;;;;;4408828;28;656353;-70
2021/06/17 07:47:06;;;;;;;13.60;6.97;;;25.40;99.90;;;;;;4442486;28;656663;-70
2021/06/17 07:49:55;;;;;;;10.02;6.63;;;25.50;99.90;;;;;;4414293;28;656201;-70
2021/06/17 07:52:43;;;;;;;13.18;6.70;;;25.40;99.90;;;;;;4427551;28;656508;-70
2021/06/17 07:55:31;;;;;;;15.73;7.30;;;25.50;99.90;;;;;;4449310;28;657975;-70
2021/06/17 07:58:18;;;;;;;13.10;7.38;;;25.60;99.90;;;;;;4429972;28;656815;-70
2021/06/17 08:01:06;;;;;;;18.15;7.35;;;25.80;99.90;;;;;;4437459;28;657373;-70
2021/06/17 08:03:54;;;;;;;15.80;7.45;;;25.90;99.90;;;;;;4421930;28;656551;-70
2021/06/17 08:06:43;;;;;;;11.07;7.00;;;26.00;99.90;;;;;;4448668;28;656684;-70
2021/06/17 08:09:30;;;;;;;12.45;7.18;;;26.10;99.90;;;;;;4413464;28;657339;-70
2021/06/17 08:12:18;;;;;;;17.83;6.55;;;26.30;99.90;;;;;;4432619;28;657121;-70
2021/06/17 08:15:07;;;;;;;12.73;7.10;;;26.20;99.90;;;;;;4429885;28;657364;-70
2021/06/17 08:17:55;;;;;;;11.45;6.05;;;26.10;99.90;;;;;;4422248;28;657569;-70
2021/06/17 08:20:44;;;;;;;12.27;6.93;;;26.30;99.90;;;;;;4425638;28;656668;-70
2021/06/17 08:23:33;;;;;;;12.77;6.60;;;26.20;99.90;;;;;;4433512;28;657148;-70
2021/06/17 08:26:20;;;;;;;8.95;6.53;;;26.30;99.90;;;;;;4422390;28;657714;-70
2021/06/17 08:29:08;;;;;;;12.23;6.53;;;26.60;99.90;;;;;;4431831;28;655161;-70
2021/06/17 08:31:55;;;;;;;10.45;6.97;;;26.80;99.90;;;;;;4437888;28;657666;-70
2021/06/17 08:34:43;;;;;;;13.57;6.40;;;27.00;99.90;;;;;;4424733;28;656676;-70
2021/06/17 08:37:30;;;;;;;11.27;6.28;;;27.20;99.90;;;;;;4441956;28;656397;-70
2021/06/17 08:40:20;;;;;;;11.85;6.40;;;27.30;99.90;;;;;;4413263;28;656996;-70
2021/06/17 08:43:07;;;;;;;11.43;6.75;;;27.40;99.90;;;;;;4446342;28;656766;-70
2021/06/17 08:45:55;;;;;;;11.30;5.97;;;27.40;99.90;;;;;;4416160;28;657354;-70
2021/06/17 08:48:43;;;;;;;10.25;6.88;;;27.30;99.90;;;;;;4437071;28;656979;-69
2021/06/17 08:51:30;;;;;;;11.90;6.53;;;27.40;99.90;;;;;;4441954;28;657677;-69
2021/06/17 08:54:19;;;;;;;13.20;6.60;;;27.50;99.90;;;;;;4419293;28;656578;-70
2021/06/17 08:57:08;;;;;;;10.63;6.57;;;27.70;99.90;;;;;;4433434;28;656728;-70
2021/06/17 08:59:56;;;;;;;11.05;5.90;;;27.90;99.90;;;;;;4427701;28;657355;-70
2021/06/17 09:02:44;;;;;;;14.35;6.93;;;28.10;99.90;;;;;;4419661;28;657131;-70
2021/06/17 09:05:33;;;;;;;15.23;6.90;;;28.20;99.90;;;;;;4439456;28;656312;-70
2021/06/17 09:08:23;;;;;;;12.10;6.55;;;28.20;99.90;;;;;;4427292;28;657411;-69
2021/06/17 09:11:19;;;;;;;15.70;6.03;;;28.30;99.90;;;;;;4425202;28;657620;-69
2021/06/17 09:14:17;;;;;;;14.32;5.97;;;28.50;99.90;;;;;;4428443;28;656638;-69
2021/06/17 09:17:07;;;;;;;47.35;7.68;;;28.60;99.90;;;;;;4399408;28;657021;-69
2021/06/17 09:19:54;;;;;;;15.90;5.90;;;28.70;99.90;;;;;;4428072;28;657354;-69
2021/06/17 09:22:42;;;;;;;14.63;6.43;;;28.80;99.90;;;;;;4443894;28;656371;-69
2021/06/17 09:25:30;;;;;;;14.80;6.78;;;28.80;98.80;;;;;;4419026;28;657146;-69
2021/06/17 09:28:18;;;;;;;21.35;6.90;;;29.00;98.60;;;;;;4441967;28;656602;-69
2021/06/17 09:31:12;;;;;;;11.50;6.35;;;29.00;98.30;;;;;;4439366;28;657724;-69
2021/06/17 09:34:00;;;;;;;10.43;5.38;;;29.20;97.80;;;;;;4389181;28;656859;-69
2021/06/17 09:36:48;;;;;;;12.18;5.70;;;29.30;95.80;;;;;;4422555;28;656813;-69
2021/06/17 09:39:36;;;;;;;13.18;5.63;;;29.20;93.20;;;;;;4451230;28;657290;-69
2021/06/17 09:42:30;;;;;;;13.80;5.00;;;29.20;92.60;;;;;;4428799;28;656770;-70
2021/06/17 09:45:19;;;;;;;6.93;4.40;;;29.30;91.40;;;;;;4412098;28;656463;-70
2021/06/17 09:48:10;;;;;;;12.48;4.72;;;29.20;87.80;;;;;;4449689;28;655839;-70
2021/06/17 09:50:58;;;;;;;14.52;5.72;;;29.40;90.50;;;;;;4398355;28;656297;-70
2021/06/17 09:53:45;;;;;;;9.77;4.47;;;29.70;90.80;;;;;;4444238;28;657253;-70
2021/06/17 09:56:34;;;;;;;8.73;4.47;;;29.80;90.50;;;;;;4418761;28;655466;-70
2021/06/17 09:59:40;;;;;;;9.63;4.80;;;29.90;87.40;;;;;;4435189;28;655113;-70
2021/06/17 10:02:34;;;;;;;11.10;5.00;;;30.00;82.50;;;;;;4397141;28;655191;-70
2021/06/17 10:05:26;;;;;;;5.38;4.05;;;30.10;82.30;;;;;;4413061;28;657352;-70
2021/06/17 10:08:14;;;;;;;9.48;4.72;;;30.00;80.70;;;;;;4386649;28;657180;-70
2021/06/17 10:11:01;;;;;;;6.93;4.50;;;30.10;83.70;;;;;;4437229;28;655358;-70
2021/06/17 10:13:49;;;;;;;11.13;4.93;;;30.00;82.70;;;;;;4415243;28;656330;-70
2021/06/17 10:16:38;;;;;;;7.03;4.80;;;29.90;85.20;;;;;;4443350;28;655963;-70
2021/06/17 10:19:25;;;;;;;27.08;5.63;;;30.30;82.70;;;;;;4417574;28;656228;-70
2021/06/17 10:22:14;;;;;;;12.40;4.85;;;30.40;82.80;;;;;;4414831;28;656993;-70
2021/06/17 10:25:02;;;;;;;8.90;4.95;;;30.60;82.90;;;;;;4436022;28;657561;-70
2021/06/17 10:27:50;;;;;;;11.50;4.85;;;30.90;80.60;;;;;;4420784;28;656980;-70
2021/06/17 10:30:39;;;;;;;9.23;4.93;;;31.10;80.00;;;;;;4433648;28;658068;-70
2021/06/17 10:33:28;;;;;;;10.15;4.90;;;31.20;78.30;;;;;;4442749;28;656546;-70
2021/06/17 10:36:37;;;;;;;8.57;5.10;;;31.10;76.20;;;;;;4426195;28;658580;-70
2021/06/17 10:39:57;;;;;;;7.25;4.78;;;31.00;74.80;;;;;;4392730;28;656765;-70
2021/06/17 10:42:46;;;;;;;9.93;4.68;;;31.10;74.50;;;;;;4409071;28;656662;-70
2021/06/17 10:45:39;;;;;;;11.02;4.82;;;31.20;76.70;;;;;;4414649;28;657226;-70
2021/06/17 10:48:42;;;;;;;7.13;5.07;;;31.40;74.60;;;;;;4405268;28;657680;-70
2021/06/17 10:51:30;;;;;;;7.20;4.32;;;31.60;73.10;;;;;;4387748;28;657334;-70
2021/06/17 10:54:27;;;;;;;9.20;4.32;;;31.80;72.50;;;;;;4448335;28;656215;-70
2021/06/17 10:57:59;;;;;;;9.18;4.50;;;31.80;71.60;;;;;;4382903;28;658258;-70
2021/06/17 11:00:51;;;;;;;9.05;4.65;;;31.70;70.20;;;;;;4341771;28;656645;-70
2021/06/17 11:03:41;;;;;;;7.10;4.45;;;31.60;70.90;;;;;;4345975;28;657109;-70
2021/06/17 11:07:06;;;;;;;9.18;4.63;;;31.70;68.10;;;;;;4335386;28;656619;-70
2021/06/17 11:10:02;;;;;;;7.03;3.90;;;31.70;66.50;;;;;;4355194;28;656964;-70
2021/06/17 11:12:59;;;;;;;8.15;4.28;;;31.60;67.20;;;;;;4316992;28;657621;-70
2021/06/17 11:15:47;;;;;;;7.25;4.35;;;31.60;64.80;;;;;;4348430;28;657449;-70
2021/06/17 11:18:59;;;;;;;7.78;4.10;;;31.60;64.70;;;;;;4340722;28;657220;-70
2021/06/17 11:21:47;;;;;;;6.97;3.92;;;31.70;67.00;;;;;;4345515;28;656389;-70
2021/06/17 11:24:35;;;;;;;8.02;4.03;;;31.70;64.60;;;;;;4350125;28;657169;-70
2021/06/17 11:27:32;;;;;;;11.00;5.13;;;31.70;62.90;;;;;;4344036;28;656605;-70
2021/06/17 11:30:19;;;;;;;7.43;4.35;;;31.80;62.60;;;;;;4334660;28;658906;-70
2021/06/17 11:33:43;;;;;;;8.05;4.43;;;31.90;65.00;;;;;;4362280;28;656376;-70
2021/06/17 11:36:32;;;;;;;5.72;3.83;;;32.00;63.40;;;;;;4339361;28;656771;-70
2021/06/17 11:39:22;;;;;;;10.30;4.40;;;32.50;61.40;;;;;;4414055;28;657929;-71
2021/06/17 11:42:16;;;;;;;6.33;4.30;;;32.60;61.90;;;;;;4413033;28;658309;-71
2021/06/17 11:45:07;;;;;;;8.33;4.57;;;32.50;62.80;;;;;;4385743;28;657189;-70
2021/06/17 11:47:54;;;;;;;9.77;4.53;;;32.30;61.30;;;;;;4427758;28;657539;-70
2021/06/17 11:50:45;;;;;;;10.13;5.13;;;32.80;61.90;;;;;;4436943;28;657092;-70
2021/06/17 11:53:35;;;;;;;9.88;4.50;;;32.50;58.80;;;;;;4399148;28;657683;-70
2021/06/17 11:56:27;;;;;;;8.25;4.82;;;32.70;60.70;;;;;;4440820;28;656472;-70
2021/06/17 11:59:23;;;;;;;7.65;4.78;;;32.40;59.60;;;;;;4412883;28;657681;-70
2021/06/17 12:02:14;;;;;;;10.33;4.63;;;32.70;58.30;;;;;;4392349;28;657715;-70
2021/06/17 12:05:03;;;;;;;8.65;4.60;;;32.70;60.40;;;;;;4411885;28;657654;-70
2021/06/17 12:07:51;;;;;;;7.05;4.38;;;32.60;58.80;;;;;;4412097;28;656972;-70
2021/06/17 12:10:41;;;;;;;12.35;5.13;;;32.40;59.30;;;;;;4426458;28;656375;-70
2021/06/17 12:13:29;;;;;;;8.45;4.97;;;32.60;59.10;;;;;;4420357;28;657814;-70
2021/06/17 12:16:19;;;;;;;12.30;5.30;;;32.90;59.30;;;;;;4441551;28;656378;-70
2021/06/17 12:19:16;;;;;;;7.90;4.57;;;32.80;58.90;;;;;;4416637;28;657426;-70
2021/06/17 12:22:07;;;;;;;11.65;5.20;;;33.00;57.00;;;;;;4424931;28;657697;-70
2021/06/17 12:24:55;;;;;;;14.87;5.37;;;32.80;57.90;;;;;;4414580;28;658242;-70
2021/06/17 12:27:45;;;;;;;8.10;4.55;;;33.00;57.60;;;;;;4415696;28;658169;-70
2021/06/17 12:30:34;;;;;;;8.13;4.90;;;32.70;56.50;;;;;;4421288;28;656778;-70
2021/06/17 12:33:24;;;;;;;11.15;4.82;;;32.70;57.80;;;;;;4452906;28;656480;-69
2021/06/17 12:36:15;;;;;;;7.03;4.60;;;32.70;58.10;;;;;;4405106;28;657702;-69
2021/06/17 12:39:10;;;;;;;8.82;4.57;;;32.60;57.30;;;;;;4402723;28;656908;-70
2021/06/17 12:41:58;;;;;;;7.33;4.40;;;32.90;57.50;;;;;;4393354;28;656504;-70
2021/06/17 12:44:47;;;;;;;9.20;5.13;;;33.10;57.20;;;;;;4448670;28;656591;-70
2021/06/17 12:47:40;;;;;;;9.48;4.68;;;32.60;55.90;;;;;;4413689;28;658277;-70
2021/06/17 12:53:48;;;;;;;7.05;4.82;;;32.80;55.00;;;;;;4394782;28;656845;-69
2021/06/17 12:56:36;;;;;;;8.38;4.93;;;32.50;55.30;;;;;;4421324;28;658691;-70
2021/06/17 12:59:41;;;;;;;7.30;4.35;;;32.70;55.70;;;;;;4431290;28;656517;-70
2021/06/17 13:02:44;;;;;;;6.82;4.30;;;32.90;56.60;;;;;;4394446;28;656809;-70
2021/06/17 13:05:36;;;;;;;7.35;4.88;;;33.40;56.00;;;;;;4416091;28;657238;-69
2021/06/17 13:08:25;;;;;;;7.27;4.53;;;33.60;55.20;;;;;;4382513;28;656855;-70
2021/06/17 13:11:13;;;;;;;11.02;5.13;;;33.60;55.70;;;;;;4416999;28;657112;-70
2021/06/17 13:14:04;;;;;;;11.45;5.65;;;33.50;54.50;;;;;;4445750;28;658132;-70
2021/06/17 13:17:03;;;;;;;13.13;5.15;;;33.30;54.90;;;;;;4426234;28;657278;-70
2021/06/17 13:19:52;;;;;;;18.27;4.90;;;33.30;56.30;;;;;;4393592;28;659205;-70
2021/06/17 13:22:54;;;;;;;8.00;5.05;;;33.70;55.50;;;;;;4420017;28;657916;-70
2021/06/17 13:25:41;;;;;;;6.07;4.50;;;33.60;54.10;;;;;;4402222;28;656910;-70
2021/06/17 13:28:34;;;;;;;8.63;4.70;;;33.30;54.30;;;;;;4393924;28;657151;-70
2021/06/17 13:31:26;;;;;;;7.53;4.63;;;33.50;53.00;;;;;;4404597;28;656366;-70
2021/06/17 13:34:16;;;;;;;11.40;4.38;;;33.50;53.40;;;;;;4393760;28;656492;-69
2021/06/17 13:37:05;;;;;;;9.60;4.72;;;33.40;54.50;;;;;;4396850;28;657735;-69
2021/06/17 13:39:53;;;;;;;13.57;4.95;;;33.10;54.00;;;;;;4408321;28;656254;-69
2021/06/17 13:42:40;;;;;;;12.35;5.18;;;33.00;55.40;;;;;;4427538;28;658651;-70
2021/06/17 13:45:28;;;;;;;12.48;5.40;;;33.00;56.20;;;;;;4409057;28;658165;-70
2021/06/17 13:48:16;;;;;;;6.30;4.88;;;32.90;56.30;;;;;;4431788;28;658324;-70
2021/06/17 13:51:04;;;;;;;8.60;5.32;;;33.00;57.20;;;;;;4410083;28;656796;-70
2021/06/17 13:53:54;;;;;;;15.45;5.47;;;32.90;55.90;;;;;;4425179;28;658510;-69
2021/06/17 13:56:42;;;;;;;11.90;5.33;;;33.00;56.40;;;;;;4393316;28;657446;-69
2021/06/17 13:59:30;;;;;;;7.00;5.03;;;32.90;56.30;;;;;;4394361;28;659480;-69
2021/06/17 14:02:17;;;;;;;6.90;4.82;;;33.00;56.60;;;;;;4422794;28;656700;-69
2021/06/17 14:05:05;;;;;;;8.48;4.82;;;33.30;55.30;;;;;;4391579;28;656490;-69
2021/06/17 14:07:53;;;;;;;10.73;5.43;;;33.40;54.40;;;;;;4391636;28;656840;-69
2021/06/17 14:10:42;;;;;;;7.15;4.90;;;33.40;54.60;;;;;;4423344;28;657892;-69
2021/06/17 14:13:30;;;;;;;9.02;4.88;;;33.30;55.70;;;;;;4408594;28;657218;-69
2021/06/17 14:16:17;;;;;;;8.27;4.90;;;33.40;56.10;;;;;;4416680;28;656520;-69
2021/06/17 14:19:05;;;;;;;5.90;4.70;;;33.60;55.70;;;;;;4402038;28;656779;-69
2021/06/17 14:21:53;;;;;;;9.05;5.30;;;33.70;54.70;;;;;;4405806;28;657111;-69
2021/06/17 14:24:40;;;;;;;9.90;4.95;;;33.40;55.30;;;;;;4420319;28;658636;-69
2021/06/17 14:27:29;;;;;;;5.75;4.80;;;33.70;55.00;;;;;;4401141;28;656895;-69
2021/06/17 14:30:18;;;;;;;6.60;5.05;;;33.80;54.10;;;;;;4412696;28;657457;-69
2021/06/17 14:33:06;;;;;;;10.35;5.60;;;33.40;53.50;;;;;;4405493;28;657625;-69
2021/06/17 14:35:53;;;;;;;9.15;5.22;;;33.30;53.90;;;;;;4378182;28;657295;-69
2021/06/17 14:38:41;;;;;;;8.75;5.10;;;33.10;54.20;;;;;;4417900;28;657825;-69
2021/06/17 14:41:28;;;;;;;10.70;5.18;;;33.30;54.30;;;;;;4395962;28;656569;-69